createdAt,value
2022-11-10T00:01:52.789Z,5.80
2022-11-10T00:06:54.701Z,5.80
2022-11-10T00:11:56.652Z,5.80
2022-11-10T00:17:01.349Z,5.90
2022-11-10T00:22:03.287Z,6.00
2022-11-10T00:27:05.275Z,6.10
2022-11-10T00:32:07.605Z,6.20
2022-11-10T00:37:09.469Z,6.30
2022-11-10T00:42:11.459Z,6.40
2022-11-10T00:47:13.479Z,6.40
2022-11-10T00:52:15.327Z,6.50
2022-11-10T00:57:17.147Z,6.50
2022-11-10T01:02:19.058Z,6.50
2022-11-10T01:07:20.880Z,6.50
2022-11-10T01:12:22.900Z,6.50
2022-11-10T01:17:24.748Z,6.60
2022-11-10T01:22:26.580Z,6.50
2022-11-10T01:27:28.552Z,6.60
2022-11-10T01:32:30.378Z,6.60
2022-11-10T01:37:32.199Z,6.50
2022-11-10T01:42:55.898Z,6.50
2022-11-10T01:48:01.332Z,6.50
2022-11-10T01:53:05.612Z,6.60
2022-11-10T01:58:07.772Z,6.60
2022-11-10T02:03:51.808Z,6.60
2022-11-10T02:08:54.326Z,6.60
2022-11-10T02:13:56.957Z,6.60
2022-11-10T02:18:58.785Z,6.60
2022-11-10T02:24:00.606Z,6.60
2022-11-10T02:29:02.435Z,6.60
2022-11-10T02:34:04.288Z,6.60
2022-11-10T02:39:06.172Z,6.60
2022-11-10T02:44:08.219Z,6.60
2022-11-10T02:49:10.039Z,6.60
2022-11-10T02:54:12.200Z,6.60
2022-11-10T02:59:17.359Z,6.60
2022-11-10T03:04:19.251Z,6.60
2022-11-10T03:09:21.097Z,6.60
2022-11-10T03:14:23.014Z,6.70
2022-11-10T03:19:24.829Z,6.60
2022-11-10T03:24:26.867Z,6.70
2022-11-10T03:29:29.364Z,6.60
2022-11-10T03:34:32.048Z,6.70
2022-11-10T03:39:34.563Z,6.70
2022-11-10T03:44:36.392Z,6.70
2022-11-10T03:49:38.410Z,6.70
2022-11-10T03:54:40.247Z,6.70
2022-11-10T03:59:42.100Z,6.70
2022-11-10T04:05:02.514Z,6.70
2022-11-10T04:10:04.828Z,6.70
2022-11-10T04:15:25.744Z,6.70
2022-11-10T04:20:27.602Z,6.70
2022-11-10T04:25:29.493Z,6.80
2022-11-10T04:30:31.440Z,6.80
2022-11-10T04:35:33.269Z,6.80
2022-11-10T04:40:35.126Z,6.80
2022-11-10T04:45:36.957Z,6.90
2022-11-10T04:50:39.058Z,6.90
2022-11-10T04:55:44.737Z,6.90
2022-11-10T05:00:46.556Z,7.00
2022-11-10T05:05:49.301Z,7.00
2022-11-10T05:10:51.088Z,7.00
2022-11-10T05:15:53.413Z,7.10
2022-11-10T05:20:55.228Z,7.10
2022-11-10T05:25:57.050Z,7.10
2022-11-10T05:30:58.976Z,7.20
2022-11-10T05:36:01.779Z,7.30
2022-11-10T05:41:03.636Z,7.30
2022-11-10T05:46:05.524Z,7.30
2022-11-10T05:52:09.766Z,7.30
2022-11-10T05:57:11.561Z,7.30
2022-11-10T06:02:13.540Z,7.30
2022-11-10T06:07:15.462Z,7.30
2022-11-10T06:12:17.297Z,7.30
2022-11-10T06:17:19.242Z,7.30
2022-11-10T06:22:21.059Z,7.30
2022-11-10T06:27:32.732Z,7.30
2022-11-10T06:32:35.232Z,7.40
2022-11-10T06:37:38.878Z,7.50
2022-11-10T06:42:46.695Z,7.50
2022-11-10T06:47:48.547Z,7.60
2022-11-10T06:52:57.069Z,7.60
2022-11-10T06:57:59.212Z,7.60
2022-11-10T07:03:06.475Z,7.70
2022-11-10T07:08:16.427Z,7.70
2022-11-10T07:13:18.573Z,7.80
2022-11-10T07:18:20.368Z,8.00
2022-11-10T07:23:22.337Z,8.00
2022-11-10T07:28:28.222Z,8.10
2022-11-10T07:33:30.417Z,8.20
2022-11-10T07:38:32.254Z,8.30
2022-11-10T07:43:34.083Z,8.40
2022-11-10T07:48:35.861Z,8.60
2022-11-10T07:53:46.472Z,8.70
2022-11-10T07:58:48.373Z,8.90
2022-11-10T08:03:50.815Z,9.00
2022-11-10T08:08:52.758Z,9.10
2022-11-10T08:13:54.624Z,9.20
2022-11-10T08:18:57.694Z,9.30
2022-11-10T08:23:59.739Z,9.30
2022-11-10T08:29:01.597Z,9.40
2022-11-10T08:34:03.992Z,9.40
2022-11-10T08:39:06.409Z,9.40
2022-11-10T08:44:10.989Z,9.50
2022-11-10T08:49:13.065Z,9.60
2022-11-10T08:54:15.109Z,9.70
2022-11-10T08:59:18.141Z,9.70
2022-11-10T09:04:20.005Z,9.90
2022-11-10T09:09:21.950Z,10.00
2022-11-10T09:14:23.737Z,10.10
2022-11-10T09:19:25.922Z,10.20
2022-11-10T09:24:31.376Z,10.30
2022-11-10T09:29:33.477Z,10.40
2022-11-10T09:34:35.413Z,10.50
2022-11-10T09:39:37.216Z,10.50
2022-11-10T09:44:46.771Z,10.50
2022-11-10T09:49:52.580Z,10.50
2022-11-10T09:55:01.469Z,10.60
2022-11-10T10:00:04.611Z,10.60
2022-11-10T10:05:30.737Z,10.50
2022-11-10T10:10:47.468Z,10.50
2022-11-10T10:16:01.463Z,10.50
2022-11-10T10:21:13.120Z,10.50
2022-11-10T10:26:17.032Z,10.50
2022-11-10T10:31:19.966Z,10.50
2022-11-10T10:36:30.941Z,10.50
2022-11-10T10:41:34.653Z,10.50
2022-11-10T10:46:48.406Z,10.50
2022-11-10T10:51:51.292Z,10.50
2022-11-10T10:57:28.428Z,10.60
2022-11-10T11:02:32.016Z,10.60
2022-11-10T11:07:34.035Z,10.60
2022-11-10T11:12:36.005Z,10.60
2022-11-10T11:17:37.964Z,10.60
2022-11-10T11:23:11.816Z,10.60
2022-11-10T11:28:24.719Z,10.60
2022-11-10T11:33:56.151Z,10.70
2022-11-10T11:39:18.229Z,10.70
2022-11-10T11:44:52.067Z,10.80
2022-11-10T11:50:15.801Z,10.90
2022-11-10T11:55:26.993Z,10.90
2022-11-10T12:00:30.334Z,11.00
2022-11-10T12:05:57.007Z,11.10
2022-11-10T12:11:27.709Z,11.10
2022-11-10T12:16:31.206Z,11.20
2022-11-10T12:21:54.366Z,11.20
2022-11-10T12:27:00.363Z,11.30
2022-11-10T12:32:12.028Z,11.40
2022-11-10T12:37:33.889Z,11.40
2022-11-10T12:42:38.441Z,11.50
2022-11-10T12:47:45.114Z,11.60
2022-11-10T12:53:03.703Z,11.60
2022-11-10T12:58:06.301Z,11.70
2022-11-10T13:03:14.577Z,11.70
2022-11-10T13:08:23.308Z,11.80
2022-11-10T13:13:25.672Z,11.90
2022-11-10T13:18:30.694Z,11.90
2022-11-10T13:23:57.638Z,11.90
2022-11-10T13:29:03.568Z,11.80
2022-11-10T13:34:27.392Z,11.80
2022-11-10T13:39:31.953Z,11.80
2022-11-10T13:44:39.157Z,11.80
2022-11-10T13:50:19.570Z,11.70
2022-11-10T13:55:48.046Z,11.70
2022-11-10T14:00:54.072Z,11.70
2022-11-10T14:06:03.165Z,11.70
2022-11-10T14:11:07.695Z,11.70
2022-11-10T14:16:17.139Z,11.70
2022-11-10T14:21:29.457Z,11.80
2022-11-10T14:26:37.871Z,11.80
2022-11-10T14:31:43.675Z,11.80
2022-11-10T14:36:56.457Z,11.70
2022-11-10T14:42:00.663Z,11.60
2022-11-10T14:47:27.768Z,11.50
2022-11-10T14:52:29.573Z,11.50
2022-11-10T14:57:31.390Z,11.40
2022-11-10T15:02:33.231Z,11.30
2022-11-10T15:07:35.312Z,11.20
2022-11-10T15:12:41.901Z,11.10
2022-11-10T15:17:50.106Z,10.90
2022-11-10T15:22:52.166Z,10.70
2022-11-10T15:28:01.771Z,10.50
2022-11-10T15:33:14.486Z,10.40
2022-11-10T15:38:20.673Z,10.20
2022-11-10T15:43:27.209Z,10.10
2022-11-10T15:48:55.348Z,10.00
2022-11-10T15:53:58.990Z,9.90
2022-11-10T15:59:02.393Z,9.80
2022-11-10T16:04:16.057Z,9.70
2022-11-10T16:09:18.020Z,9.70
2022-11-10T16:14:19.837Z,9.60
2022-11-10T16:19:23.470Z,9.50
2022-11-10T16:24:26.417Z,9.50
2022-11-10T16:29:28.331Z,9.40
2022-11-10T16:34:30.223Z,9.50
2022-11-10T16:39:33.050Z,9.50
2022-11-10T16:44:37.647Z,9.50
2022-11-10T16:49:44.267Z,9.50
2022-11-10T16:54:46.039Z,9.60
2022-11-10T16:59:47.865Z,9.60
2022-11-10T17:04:59.019Z,9.70
2022-11-10T17:10:05.954Z,9.80
2022-11-10T17:15:19.878Z,9.80
2022-11-10T17:20:24.581Z,9.90
2022-11-10T17:25:51.999Z,9.90
2022-11-10T17:31:07.942Z,9.80
2022-11-10T17:36:15.879Z,9.80
2022-11-10T17:41:19.129Z,9.70
2022-11-10T17:46:44.985Z,9.70
2022-11-10T17:51:54.529Z,9.60
2022-11-10T17:56:56.341Z,9.60
2022-11-10T18:02:01.047Z,9.50
2022-11-10T18:07:02.890Z,9.40
2022-11-10T18:12:04.982Z,9.10
2022-11-10T18:17:06.773Z,9.00
2022-11-10T18:22:20.661Z,8.80
2022-11-10T18:27:22.637Z,8.70
2022-11-10T18:32:25.650Z,8.60
2022-11-10T18:37:27.759Z,8.50
2022-11-10T18:42:29.809Z,8.50
2022-11-10T18:47:32.081Z,8.50
2022-11-10T18:52:35.981Z,8.50
2022-11-10T18:57:37.794Z,8.40
2022-11-10T19:02:39.606Z,8.40
2022-11-10T19:07:42.182Z,8.30
2022-11-10T19:12:44.108Z,8.20
2022-11-10T19:17:45.989Z,8.10
2022-11-10T19:22:47.833Z,8.10
2022-11-10T19:27:51.858Z,7.80
2022-11-10T19:32:54.698Z,7.80
2022-11-10T19:37:57.857Z,7.80
2022-11-10T19:43:01.081Z,7.80
2022-11-10T19:48:03.218Z,7.90
2022-11-10T19:53:08.907Z,7.80
2022-11-10T19:58:15.040Z,7.80
2022-11-10T20:03:40.333Z,7.60
2022-11-10T20:08:44.454Z,7.50
2022-11-10T20:13:51.954Z,7.50
2022-11-10T20:18:56.169Z,7.40
2022-11-10T20:23:59.024Z,7.50
2022-11-10T20:29:03.189Z,7.50
2022-11-10T20:34:05.250Z,7.50
2022-11-10T20:39:07.480Z,7.50
2022-11-10T20:44:11.042Z,7.40
2022-11-10T20:49:13.091Z,7.40
2022-11-10T20:54:19.371Z,7.30
2022-11-10T20:59:26.688Z,7.20
2022-11-10T21:04:31.562Z,7.30
2022-11-10T21:09:35.790Z,7.30
2022-11-10T21:14:39.051Z,7.40
2022-11-10T21:19:42.059Z,7.40
2022-11-10T21:24:44.179Z,7.40
2022-11-10T21:29:46.456Z,7.40
2022-11-10T21:34:48.427Z,7.30
2022-11-10T21:39:52.741Z,7.20
2022-11-10T21:44:55.062Z,7.10
2022-11-10T21:49:56.866Z,7.10
2022-11-10T21:54:59.664Z,6.90
2022-11-10T22:00:01.964Z,6.90
2022-11-10T22:05:04.221Z,6.80
2022-11-10T22:10:25.202Z,6.80
2022-11-10T22:15:49.722Z,6.80
2022-11-10T22:20:51.935Z,6.70
2022-11-10T22:25:55.290Z,6.60
2022-11-10T22:30:57.166Z,6.60
2022-11-10T22:36:00.358Z,6.70
2022-11-10T22:41:20.973Z,6.50
2022-11-10T22:46:24.876Z,6.50
2022-11-10T22:51:29.040Z,6.30
2022-11-10T22:56:32.351Z,6.40
2022-11-10T23:01:34.306Z,6.40
2022-11-10T23:06:36.207Z,6.30
2022-11-10T23:11:38.134Z,6.20
2022-11-10T23:16:45.153Z,6.20
2022-11-10T23:21:49.006Z,6.10
2022-11-10T23:26:51.348Z,6.00
2022-11-10T23:31:53.352Z,6.00
2022-11-10T23:36:55.183Z,6.00
2022-11-10T23:41:57.086Z,6.00
2022-11-10T23:46:59.106Z,6.00
2022-11-10T23:52:00.953Z,6.00
2022-11-10T23:57:03.012Z,6.10
